Time;durP1;ratioP1;P1;durP2;ratioP2;P2;SDS_P1;SDS_P2;PMS_P1;PMS_P2;Temp;Humidity;BMP_temperature;BMP_pressure;BME280_temperature;BME280_humidity;BME280_pressure;Samples;Min_cycle;Max_cycle;Signal;HPM_P1;HPM_P2
2022/01/14 00:01:02;;;;;;;;;;;-1.10;99.90;;;;;;5076030;28;19924;-75
2022/01/14 00:03:29;;;;;;;;;;;-1.10;99.90;;;;;;5065000;28;19931;-75
2022/01/14 00:05:56;;;;;;;;;;;-1.10;99.90;;;;;;5069235;28;19928;-75
2022/01/14 00:08:22;;;;;;;;;;;-1.10;99.90;;;;;;5074821;28;19932;-75
2022/01/14 00:10:50;;;;;;;;;;;-1.10;99.90;;;;;;5079638;28;19924;-75
2022/01/14 00:13:42;;;;;;;;;;;-1.00;99.90;;;;;;5086744;28;19923;-75
2022/01/14 00:16:09;;;;;;;;;;;-1.10;99.90;;;;;;5068809;28;19928;-75
2022/01/14 00:18:35;;;;;;;;;;;-1.10;99.90;;;;;;5086681;28;20435;-75
2022/01/14 00:21:02;;;;;;;;;;;-1.10;99.90;;;;;;5084702;28;20032;-76
2022/01/14 00:23:33;;;;;;;;;;;-1.10;99.90;;;;;;5067914;28;19928;-75
2022/01/14 00:31:43;;;;;;;;;;;-1.10;99.90;;;;;;5083853;28;19931;-75
2022/01/14 00:34:10;;;;;;;;;;;-1.10;99.90;;;;;;5081477;28;19932;-75
2022/01/14 00:36:37;;;;;;;;;;;-1.10;99.90;;;;;;5084438;28;19928;-75
2022/01/14 00:39:05;;;;;;;;;;;-1.10;99.90;;;;;;5088923;28;19924;-75
2022/01/14 00:41:32;;;;;;;;;;;-1.10;99.90;;;;;;5069968;28;19924;-75
2022/01/14 00:44:01;;;;;;;;;;;-1.10;99.90;;;;;;5088373;28;19924;-75
2022/01/14 00:46:28;;;;;;;;;;;-1.10;99.90;;;;;;5083344;28;20016;-75
2022/01/14 00:48:56;;;;;;;;;;;-1.20;99.90;;;;;;5089797;28;19924;-75
2022/01/14 00:51:23;;;;;;;;;;;-1.10;99.90;;;;;;5088566;28;19924;-75
2022/01/14 00:53:50;;;;;;;;;;;-1.10;99.90;;;;;;5080712;28;20297;-75
2022/01/14 00:56:30;;;;;;;;;;;-1.20;99.90;;;;;;5090163;28;19924;-75
2022/01/14 00:59:14;;;;;;;;;;;-1.20;99.90;;;;;;5068980;28;19963;-76
2022/01/14 01:01:43;;;;;;;;;;;-1.10;99.90;;;;;;5064416;28;19924;-75
2022/01/14 01:04:11;;;;;;;;;;;-1.20;99.90;;;;;;5090040;28;19933;-75
2022/01/14 01:06:38;;;;;;;;;;;-1.20;99.90;;;;;;5073694;28;19931;-75
2022/01/14 01:09:08;;;;;;;;;;;-1.20;99.90;;;;;;5084799;28;19924;-75
2022/01/14 01:11:38;;;;;;;;;;;-1.20;99.90;;;;;;5094246;28;19928;-75
2022/01/14 01:14:10;;;;;;;;;;;-1.20;99.90;;;;;;5088967;28;19924;-75
2022/01/14 01:16:37;;;;;;;;;;;-1.20;99.90;;;;;;5085546;28;19928;-75
2022/01/14 01:19:06;;;;;;;;;;;-1.20;99.90;;;;;;5087154;28;19968;-75
2022/01/14 01:21:33;;;;;;;;;;;-1.20;99.90;;;;;;5085593;28;19924;-76
2022/01/14 01:24:00;;;;;;;;;;;-1.20;99.90;;;;;;5080660;28;19928;-75
2022/01/14 01:26:30;;;;;;;;;;;-1.20;99.90;;;;;;5064634;28;19928;-75
2022/01/14 01:29:09;;;;;;;;;;;-1.20;99.90;;;;;;5064843;28;19944;-75
2022/01/14 01:31:36;;;;;;;;;;;-1.20;99.90;;;;;;5080165;28;19925;-75
2022/01/14 01:34:03;;;;;;;;;;;-1.20;99.90;;;;;;5083348;28;19931;-75
2022/01/14 01:36:31;;;;;;;;;;;-1.20;99.90;;;;;;5086524;28;19931;-75
2022/01/14 01:38:58;;;;;;;;;;;-1.20;99.90;;;;;;5068065;28;19939;-75
2022/01/14 01:41:25;;;;;;;;;;;-1.20;99.90;;;;;;5090558;28;19932;-75
2022/01/14 01:43:54;;;;;;;;;;;-1.20;99.90;;;;;;5070633;28;20528;-77
2022/01/14 01:46:23;;;;;;;;;;;-1.30;99.90;;;;;;5085402;28;19930;-75
2022/01/14 01:48:50;;;;;;;;;;;-1.20;99.90;;;;;;5076704;28;20024;-75
2022/01/14 01:51:17;;;;;;;;;;;-1.20;99.90;;;;;;5087436;28;19935;-75
2022/01/14 01:53:46;;;;;;;;;;;-1.20;99.90;;;;;;5081607;28;19932;-75
2022/01/14 01:56:13;;;;;;;;;;;-1.30;99.90;;;;;;5079290;28;20310;-75
2022/01/14 01:58:40;;;;;;;;;;;-1.30;99.90;;;;;;5082871;28;20415;-75
2022/01/14 02:01:08;;;;;;;;;;;-1.30;99.90;;;;;;5092249;28;19963;-75
2022/01/14 02:03:36;;;;;;;;;;;-1.30;99.90;;;;;;5094480;28;20356;-75
2022/01/14 02:06:03;;;;;;;;;;;-1.30;99.90;;;;;;5065019;28;19925;-75
2022/01/14 02:08:30;;;;;;;;;;;-1.30;99.90;;;;;;5092141;28;20344;-75
2022/01/14 02:10:59;;;;;;;;;;;-1.30;99.90;;;;;;5071499;28;19932;-75
2022/01/14 02:13:26;;;;;;;;;;;-1.30;99.90;;;;;;5080369;28;20387;-75
2022/01/14 02:16:16;;;;;;;;;;;-1.30;99.90;;;;;;5088974;28;19943;-75
2022/01/14 02:18:49;;;;;;;;;;;-1.30;99.90;;;;;;5077417;28;19936;-75
2022/01/14 02:24:20;;;;;;;;;;;-1.30;99.90;;;;;;5084882;28;19924;-75
2022/01/14 02:26:48;;;;;;;;;;;-1.30;99.90;;;;;;5080962;28;19928;-75
2022/01/14 02:29:15;;;;;;;;;;;-1.30;99.90;;;;;;5082575;28;19931;-75
2022/01/14 02:31:42;;;;;;;;;;;-1.30;99.90;;;;;;5077698;28;19932;-75
2022/01/14 02:34:10;;;;;;;;;;;-1.40;99.90;;;;;;5068252;28;19924;-75
2022/01/14 02:36:40;;;;;;;;;;;-1.30;99.90;;;;;;5067112;28;19924;-75
2022/01/14 02:39:06;;;;;;;;;;;-1.40;99.90;;;;;;5084547;28;19930;-75
2022/01/14 02:41:34;;;;;;;;;;;-1.40;99.90;;;;;;5082321;28;19970;-75
2022/01/14 02:44:03;;;;;;;;;;;-1.40;99.90;;;;;;5072652;28;20436;-75
2022/01/14 02:46:36;;;;;;;;;;;-1.40;99.90;;;;;;5081836;28;19959;-75
2022/01/14 02:49:03;;;;;;;;;;;-1.40;99.90;;;;;;5065164;28;19933;-75
2022/01/14 02:51:30;;;;;;;;;;;-1.40;99.90;;;;;;5061139;28;19924;-75
2022/01/14 02:54:10;;;;;;;;;;;-1.40;99.90;;;;;;5085628;28;19930;-75
2022/01/14 02:56:38;;;;;;;;;;;-1.40;99.90;;;;;;5076795;28;19928;-75
2022/01/14 02:59:07;;;;;;;;;;;-1.40;99.90;;;;;;5069823;28;19928;-76
2022/01/14 03:01:34;;;;;;;;;;;-1.40;99.90;;;;;;5086890;28;19924;-75
2022/01/14 03:04:01;;;;;;;;;;;-1.40;99.90;;;;;;5069697;28;19928;-75
2022/01/14 03:06:29;;;;;;;;;;;-1.40;99.90;;;;;;5088727;28;19924;-75
2022/01/14 03:08:57;;;;;;;;;;;-1.40;99.90;;;;;;5071680;28;19924;-75
2022/01/14 03:11:30;;;;;;;;;;;-1.40;99.90;;;;;;5082551;28;19928;-75
2022/01/14 03:13:57;;;;;;;;;;;-1.40;99.90;;;;;;5078528;28;19931;-75
2022/01/14 03:16:24;;;;;;;;;;;-1.40;99.90;;;;;;5059695;28;20348;-75
2022/01/14 03:18:53;;;;;;;;;;;-1.40;99.90;;;;;;5060945;28;19974;-75
2022/01/14 03:21:27;;;;;;;;;;;-1.50;99.90;;;;;;5064922;28;19924;-75
2022/01/14 03:24:03;;;;;;;;;;;-1.40;99.90;;;;;;5065783;28;19936;-75
2022/01/14 03:26:32;;;;;;;;;;;-1.50;99.90;;;;;;5066806;28;20634;-75
2022/01/14 03:28:58;;;;;;;;;;;-1.50;99.90;;;;;;5076603;28;19931;-75
2022/01/14 03:31:25;;;;;;;;;;;-1.50;99.90;;;;;;5066951;28;20009;-76
2022/01/14 03:33:52;;;;;;;;;;;-1.50;99.90;;;;;;5067669;28;20478;-75
2022/01/14 03:36:19;;;;;;;;;;;-1.50;99.90;;;;;;5067421;28;19925;-75
2022/01/14 03:38:46;;;;;;;;;;;-1.50;99.90;;;;;;5083374;28;19977;-75
2022/01/14 03:41:13;;;;;;;;;;;-1.50;99.90;;;;;;5058565;28;19931;-75
2022/01/14 03:43:42;;;;;;;;;;;-1.50;99.90;;;;;;5075790;28;19924;-75
2022/01/14 03:46:09;;;;;;;;;;;-1.50;99.90;;;;;;5083157;28;20011;-75
2022/01/14 03:48:36;;;;;;;;;;;-1.50;99.90;;;;;;5081464;28;20023;-75
2022/01/14 03:51:03;;;;;;;;;;;-1.50;99.90;;;;;;5065088;28;20027;-75
2022/01/14 03:53:30;;;;;;;;;;;-1.50;99.90;;;;;;5058008;28;19946;-74
2022/01/14 03:55:57;;;;;;;;;;;-1.50;99.90;;;;;;5083029;28;20773;-74
2022/01/14 03:58:24;;;;;;;;;;;-1.50;99.90;;;;;;5085237;28;19940;-73
2022/01/14 04:00:52;;;;;;;;;;;-1.50;99.90;;;;;;5081710;28;19970;-74
2022/01/14 04:03:19;;;;;;;;;;;-1.50;99.90;;;;;;5086236;28;19924;-73
2022/01/14 04:05:46;;;;;;;;;;;-1.50;99.90;;;;;;5069006;28;19938;-74
2022/01/14 04:08:13;;;;;;;;;;;-1.50;99.90;;;;;;5073428;28;19924;-73
2022/01/14 04:10:40;;;;;;;;;;;-1.50;99.90;;;;;;5082659;28;19924;-74
2022/01/14 04:13:14;;;;;;;;;;;-1.60;99.90;;;;;;5078946;28;19930;-74
2022/01/14 04:15:43;;;;;;;;;;;-1.60;99.90;;;;;;5087070;28;19978;-73
2022/01/14 04:18:13;;;;;;;;;;;-1.60;99.90;;;;;;5083600;28;19943;-73
2022/01/14 04:20:40;;;;;;;;;;;-1.60;99.90;;;;;;5065798;28;19973;-73
2022/01/14 04:23:08;;;;;;;;;;;-1.60;99.90;;;;;;5062159;28;19938;-74
2022/01/14 04:25:35;;;;;;;;;;;-1.60;99.90;;;;;;5082088;28;19925;-74
2022/01/14 04:28:03;;;;;;;;;;;-1.60;99.90;;;;;;5057518;28;19924;-74
2022/01/14 04:30:30;;;;;;;;;;;-1.60;99.90;;;;;;5079799;28;19967;-74
2022/01/14 04:32:57;;;;;;;;;;;-1.60;99.90;;;;;;5083099;28;19928;-74
2022/01/14 04:35:26;;;;;;;;;;;-1.60;99.90;;;;;;5067979;28;20018;-74
2022/01/14 04:37:53;;;;;;;;;;;-1.60;99.90;;;;;;5074212;28;19928;-74
2022/01/14 04:40:20;;;;;;;;;;;-1.60;99.90;;;;;;5072828;28;19924;-73
2022/01/14 04:42:47;;;;;;;;;;;-1.60;99.90;;;;;;5084369;28;20302;-74
2022/01/14 04:45:26;;;;;;;;;;;-1.60;99.90;;;;;;5059251;28;19928;-74
2022/01/14 04:47:54;;;;;;;;;;;-1.60;99.90;;;;;;5083036;28;20310;-74
2022/01/14 04:50:21;;;;;;;;;;;-1.60;99.90;;;;;;5082196;28;20385;-74
2022/01/14 04:52:50;;;;;;;;;;;-1.60;99.90;;;;;;5078268;28;19942;-74
2022/01/14 04:55:18;;;;;;;;;;;-1.70;99.90;;;;;;5081584;28;19924;-73
2022/01/14 04:57:46;;;;;;;;;;;-1.60;99.90;;;;;;5081309;28;20470;-73
2022/01/14 05:00:14;;;;;;;;;;;-1.70;99.90;;;;;;5076978;28;19926;-74
2022/01/14 05:02:41;;;;;;;;;;;-1.70;99.90;;;;;;5061762;28;20382;-74
2022/01/14 05:05:09;;;;;;;;;;;-1.60;99.90;;;;;;5079227;28;19971;-73
2022/01/14 05:07:36;;;;;;;;;;;-1.70;99.90;;;;;;5074722;28;20037;-73
2022/01/14 05:10:18;;;;;;;;;;;-1.70;99.90;;;;;;5068937;28;20450;-74
2022/01/14 05:12:45;;;;;;;;;;;-1.70;99.90;;;;;;5065489;28;19924;-73
2022/01/14 05:15:13;;;;;;;;;;;-1.70;99.90;;;;;;5065433;28;20950;-74
2022/01/14 05:17:40;;;;;;;;;;;-1.70;99.90;;;;;;5084568;28;20417;-74
2022/01/14 05:20:07;;;;;;;;;;;-1.70;99.90;;;;;;5066980;28;19924;-74
2022/01/14 05:22:34;;;;;;;;;;;-1.70;99.90;;;;;;5067944;28;19924;-74
2022/01/14 05:25:01;;;;;;;;;;;-1.70;99.90;;;;;;5069241;28;19955;-73
2022/01/14 05:27:29;;;;;;;;;;;-1.70;99.90;;;;;;5063914;28;20787;-73
2022/01/14 05:29:56;;;;;;;;;;;-1.70;99.90;;;;;;5087914;28;19931;-73
2022/01/14 05:32:24;;;;;;;;;;;-1.70;99.90;;;;;;5073994;28;19924;-74
2022/01/14 05:34:51;;;;;;;;;;;-1.70;99.90;;;;;;5077579;28;19924;-73
2022/01/14 05:37:18;;;;;;;;;;;-1.80;99.90;;;;;;5096228;28;20340;-73
2022/01/14 05:39:45;;;;;;;;;;;-1.70;99.90;;;;;;5086491;28;19932;-73
2022/01/14 05:42:12;;;;;;;;;;;-1.80;99.90;;;;;;5080492;28;19924;-74
2022/01/14 05:44:41;;;;;;;;;;;-1.80;99.90;;;;;;5063937;28;19998;-73
2022/01/14 05:47:08;;;;;;;;;;;-1.70;99.90;;;;;;5067210;28;19935;-74
2022/01/14 05:49:35;;;;;;;;;;;-1.70;99.90;;;;;;5085432;28;20313;-74
2022/01/14 05:52:02;;;;;;;;;;;-1.70;99.90;;;;;;5068349;28;19931;-73
2022/01/14 05:54:29;;;;;;;;;;;-1.80;99.90;;;;;;5081401;28;19967;-74
2022/01/14 05:56:56;;;;;;;;;;;-1.80;99.90;;;;;;5059077;28;20014;-74
2022/01/14 05:59:23;;;;;;;;;;;-1.80;99.90;;;;;;5080385;28;19928;-73
2022/01/14 06:01:52;;;;;;;;;;;-1.80;99.90;;;;;;5060092;28;19935;-74
2022/01/14 06:04:19;;;;;;;;;;;-1.70;99.90;;;;;;5088723;28;19928;-74
2022/01/14 06:06:45;;;;;;;;;;;-1.80;99.90;;;;;;5087287;28;20002;-74
2022/01/14 06:09:12;;;;;;;;;;;-1.70;99.90;;;;;;5084538;28;20336;-73
2022/01/14 06:11:39;;;;;;;;;;;-1.70;99.90;;;;;;5081686;28;20470;-73
2022/01/14 06:14:06;;;;;;;;;;;-1.70;99.90;;;;;;5087568;28;19938;-74
2022/01/14 06:16:33;;;;;;;;;;;-1.70;99.90;;;;;;5066055;28;20386;-74
2022/01/14 06:19:01;;;;;;;;;;;-1.70;99.90;;;;;;5067882;28;19989;-74
2022/01/14 06:21:28;;;;;;;;;;;-1.70;99.90;;;;;;5055663;28;19932;-74
2022/01/14 06:23:55;;;;;;;;;;;-1.70;99.90;;;;;;5064769;28;19925;-73
2022/01/14 06:26:22;;;;;;;;;;;-1.70;99.90;;;;;;5082454;28;19932;-73
2022/01/14 06:28:49;;;;;;;;;;;-1.80;99.90;;;;;;5081099;28;19935;-74
2022/01/14 06:31:16;;;;;;;;;;;-1.80;99.90;;;;;;5078659;28;20336;-73
2022/01/14 06:33:43;;;;;;;;;;;-1.70;99.90;;;;;;5060321;28;19928;-74
2022/01/14 06:36:11;;;;;;;;;;;-1.80;99.90;;;;;;5076113;28;20415;-74
2022/01/14 06:38:38;;;;;;;;;;;-1.80;99.90;;;;;;5080167;28;19924;-74
2022/01/14 06:41:05;;;;;;;;;;;-1.70;99.90;;;;;;5085173;28;19924;-74
2022/01/14 06:43:32;;;;;;;;;;;-1.80;99.90;;;;;;5066102;28;19932;-73
2022/01/14 06:45:59;;;;;;;;;;;-1.80;99.90;;;;;;5082962;28;19932;-74
2022/01/14 06:48:26;;;;;;;;;;;-1.80;99.90;;;;;;5064751;28;19955;-74
2022/01/14 06:50:54;;;;;;;;;;;-1.80;99.90;;;;;;5080856;28;19924;-74
2022/01/14 06:53:23;;;;;;;;;;;-1.70;99.90;;;;;;5078817;28;19989;-75
2022/01/14 06:55:50;;;;;;;;;;;-1.70;99.90;;;;;;5088769;28;19951;-74
2022/01/14 06:58:17;;;;;;;;;;;-1.70;99.90;;;;;;5077916;28;19928;-73
2022/01/14 07:00:44;;;;;;;;;;;-1.80;99.90;;;;;;5069154;28;19955;-74
2022/01/14 07:03:11;;;;;;;;;;;-1.80;99.90;;;;;;5063854;28;19928;-74
2022/01/14 07:05:38;;;;;;;;;;;-1.80;99.90;;;;;;5097414;22;19951;-79
2022/01/14 07:08:05;;;;;;;;;;;-1.70;99.90;;;;;;5095394;28;20682;-80
2022/01/14 07:10:36;;;;;;;;;;;-1.80;99.90;;;;;;5101643;28;19939;-80
2022/01/14 07:13:04;;;;;;;;;;;-1.70;99.90;;;;;;5113028;27;19923;-80
2022/01/14 07:15:32;;;;;;;;;;;-1.70;99.90;;;;;;5094978;28;20356;-80
2022/01/14 07:17:59;;;;;;;;;;;-1.70;99.90;;;;;;5097335;28;19930;-80
2022/01/14 07:20:26;;;;;;;;;;;-1.70;99.90;;;;;;5090526;28;20003;-80
2022/01/14 07:22:53;;;;;;;;;;;-1.80;99.90;;;;;;5086768;28;20368;-79
2022/01/14 07:25:20;;;;;;;;;;;-1.80;99.90;;;;;;5083488;28;19932;-79
2022/01/14 07:27:49;;;;;;;;;;;-1.70;99.90;;;;;;5079924;28;19932;-79
2022/01/14 07:30:16;;;;;;;;;;;-1.70;99.90;;;;;;5072837;28;19932;-79
2022/01/14 07:32:44;;;;;;;;;;;-1.70;99.90;;;;;;5079453;28;19925;-79
2022/01/14 07:35:11;;;;;;;;;;;-1.80;99.90;;;;;;5084512;28;19931;-79
2022/01/14 07:37:38;;;;;;;;;;;-1.70;99.90;;;;;;5074731;28;19931;-79
2022/01/14 07:40:06;;;;;;;;;;;-1.80;99.90;;;;;;5094317;27;19931;-79
2022/01/14 07:42:34;;;;;;;;;;;-1.70;99.90;;;;;;5079946;28;20685;-79
2022/01/14 07:45:03;;;;;;;;;;;-1.80;99.90;;;;;;5074909;28;19935;-80
2022/01/14 07:47:30;;;;;;;;;;;-1.80;99.90;;;;;;5087523;27;20053;-79
2022/01/14 07:49:57;;;;;;;;;;;-1.70;99.90;;;;;;5080698;28;19924;-80
2022/01/14 07:52:24;;;;;;;;;;;-1.70;99.90;;;;;;5090127;28;19928;-79
2022/01/14 07:54:51;;;;;;;;;;;-1.80;99.90;;;;;;5083226;28;19931;-79
2022/01/14 07:57:19;;;;;;;;;;;-1.80;99.90;;;;;;5082196;28;19947;-79
2022/01/14 07:59:46;;;;;;;;;;;-1.80;99.90;;;;;;5082079;28;19931;-79
2022/01/14 08:02:15;;;;;;;;;;;-1.80;99.90;;;;;;5071601;28;19935;-79
2022/01/14 08:04:42;;;;;;;;;;;-1.80;99.90;;;;;;5095665;28;19928;-79
2022/01/14 08:07:09;;;;;;;;;;;-1.80;99.90;;;;;;5081032;28;19954;-79
2022/01/14 08:09:37;;;;;;;;;;;-1.80;99.90;;;;;;5091786;28;19931;-79
2022/01/14 08:12:04;;;;;;;;;;;-1.80;99.90;;;;;;5070275;28;19924;-78
2022/01/14 08:14:31;;;;;;;;;;;-1.80;99.90;;;;;;5082175;28;19967;-79
2022/01/14 08:16:59;;;;;;;;;;;-1.80;99.90;;;;;;5071856;28;19971;-79
2022/01/14 08:19:32;;;;;;;;;;;-1.80;99.90;;;;;;5075863;28;19978;-79
2022/01/14 08:22:00;;;;;;;;;;;-1.80;99.90;;;;;;5075988;28;19931;-80
2022/01/14 08:24:27;;;;;;;;;;;-1.80;99.90;;;;;;5070304;28;19923;-80
2022/01/14 08:26:53;;;;;;;;;;;-1.80;99.90;;;;;;5073266;28;19924;-80
2022/01/14 08:29:20;;;;;;;;;;;-1.80;99.90;;;;;;5082365;28;19928;-78
2022/01/14 08:31:47;;;;;;;;;;;-1.80;99.90;;;;;;5076444;28;20013;-79
2022/01/14 08:34:14;;;;;;;;;;;-1.80;99.90;;;;;;5069905;28;20029;-79
2022/01/14 08:36:43;;;;;;;;;;;-1.80;99.90;;;;;;5075171;28;19925;-79
2022/01/14 08:39:10;;;;;;;;;;;-1.70;99.90;;;;;;5082637;28;19928;-79
2022/01/14 08:41:37;;;;;;;;;;;-1.80;99.90;;;;;;5075275;28;19930;-79
2022/01/14 08:44:04;;;;;;;;;;;-1.80;99.90;;;;;;5075293;28;19954;-79
2022/01/14 08:46:31;;;;;;;;;;;-1.80;99.90;;;;;;5081177;28;19946;-79
2022/01/14 08:49:00;;;;;;;;;;;-1.70;99.90;;;;;;5080733;28;20019;-80
2022/01/14 08:51:28;;;;;;;;;;;-1.70;99.90;;;;;;5076227;28;19924;-79
2022/01/14 08:53:57;;;;;;;;;;;-1.70;99.90;;;;;;5074632;28;19925;-80
2022/01/14 08:56:24;;;;;;;;;;;-1.70;99.90;;;;;;5087349;28;19932;-80
2022/01/14 08:58:51;;;;;;;;;;;-1.70;99.90;;;;;;5079646;28;19948;-79
2022/01/14 09:01:18;;;;;;;;;;;-1.70;99.90;;;;;;5083626;28;19927;-80
2022/01/14 09:03:45;;;;;;;;;;;-1.60;99.90;;;;;;5081800;28;19936;-79
2022/01/14 09:06:12;;;;;;;;;;;-1.20;99.90;;;;;;5103372;27;19977;-79
2022/01/14 09:08:39;;;;;;;;;;;-1.00;99.90;;;;;;5089332;28;20477;-79
2022/01/14 09:11:08;;;;;;;;;;;-1.00;99.90;;;;;;5080318;28;19928;-79
2022/01/14 09:13:35;;;;;;;;;;;-0.90;99.90;;;;;;5078799;28;19967;-79
2022/01/14 09:16:02;;;;;;;;;;;-0.90;99.90;;;;;;5090507;28;19956;-79
2022/01/14 09:18:30;;;;;;;;;;;-1.00;99.90;;;;;;5084701;28;20053;-79
2022/01/14 09:20:58;;;;;;;;;;;-1.00;99.90;;;;;;5087130;28;19924;-79
2022/01/14 09:23:25;;;;;;;;;;;-1.00;99.90;;;;;;5084746;28;19960;-79
2022/01/14 09:25:53;;;;;;;;;;;-1.00;99.90;;;;;;5088537;28;19932;-79
2022/01/14 09:28:21;;;;;;;;;;;-1.00;99.90;;;;;;5089758;28;19931;-79
2022/01/14 09:30:48;;;;;;;;;;;-1.10;99.90;;;;;;5087076;28;20070;-79
2022/01/14 09:33:17;;;;;;;;;;;-1.10;99.90;;;;;;5082731;28;20006;-79
2022/01/14 09:35:45;;;;;;;;;;;-1.10;99.90;;;;;;5083687;28;20300;-79
2022/01/14 09:38:12;;;;;;;;;;;-1.10;99.90;;;;;;5084471;28;19932;-79
2022/01/14 09:40:42;;;;;;;;;;;-1.00;99.90;;;;;;5078358;28;19986;-78
2022/01/14 09:43:09;;;;;;;;;;;-1.00;99.90;;;;;;5079506;28;19959;-79
2022/01/14 09:45:38;;;;;;;;;;;-1.00;99.90;;;;;;5083107;28;19939;-80
2022/01/14 09:48:05;;;;;;;;;;;-1.00;99.90;;;;;;5079784;28;19925;-80
2022/01/14 09:50:32;;;;;;;;;;;-1.00;99.90;;;;;;5090020;28;19923;-79
2022/01/14 09:52:59;;;;;;;;;;;-1.00;99.90;;;;;;5077734;28;19932;-80
2022/01/14 09:55:27;;;;;;;;;;;-1.00;99.90;;;;;;5080618;28;19928;-80
2022/01/14 09:57:54;;;;;;;;;;;-1.00;99.90;;;;;;5081811;28;19932;-79
2022/01/14 10:00:22;;;;;;;;;;;-1.00;99.90;;;;;;5079137;28;19950;-81
2022/01/14 10:02:51;;;;;;;;;;;-1.00;99.90;;;;;;5075228;28;19932;-81
2022/01/14 10:05:37;;;;;;;;;;;-1.00;99.90;;;;;;5083799;28;19932;-80
2022/01/14 10:08:08;;;;;;;;;;;-0.90;99.90;;;;;;5080294;28;19928;-80
2022/01/14 10:10:37;;;;;;;;;;;-0.90;99.90;;;;;;5076560;28;20348;-79
2022/01/14 10:13:11;;;;;;;;;;;-1.00;99.90;;;;;;5075825;28;20301;-79
2022/01/14 10:15:42;;;;;;;;;;;-1.00;99.90;;;;;;5092512;27;19931;-80
2022/01/14 10:18:12;;;;;;;;;;;-0.90;99.90;;;;;;5077747;28;19935;-80
2022/01/14 10:20:39;;;;;;;;;;;-1.00;99.90;;;;;;5074449;28;20382;-80
2022/01/14 10:23:06;;;;;;;;;;;-1.00;99.90;;;;;;5074531;28;19924;-79
2022/01/14 10:25:34;;;;;;;;;;;-1.00;99.90;;;;;;5073217;28;19977;-79
2022/01/14 10:28:01;;;;;;;;;;;-1.00;99.90;;;;;;5076716;28;20023;-79
2022/01/14 10:30:29;;;;;;;;;;;-1.00;99.90;;;;;;5096929;27;19932;-79
2022/01/14 10:32:57;;;;;;;;;;;-0.90;99.90;;;;;;5080456;28;19932;-80
2022/01/14 10:35:26;;;;;;;;;;;-0.90;99.90;;;;;;5080501;28;19924;-79
2022/01/14 10:37:55;;;;;;;;;;;-0.90;99.90;;;;;;5081737;28;20385;-80
2022/01/14 10:40:23;;;;;;;;;;;-0.90;99.90;;;;;;5076487;28;19928;-80
2022/01/14 10:42:51;;;;;;;;;;;-0.90;99.90;;;;;;5077157;28;20054;-80
2022/01/14 10:45:22;;;;;;;;;;;-0.90;99.90;;;;;;5083154;28;19967;-80
2022/01/14 10:47:59;;;;;;;;;;;-0.90;99.90;;;;;;5080594;28;20401;-79
2022/01/14 10:50:28;;;;;;;;;;;-1.00;99.90;;;;;;5098934;27;19924;-79
2022/01/14 10:52:57;;;;;;;;;;;-0.90;99.90;;;;;;5098499;28;19928;-79
2022/01/14 10:55:31;;;;;;;;;;;-0.90;99.90;;;;;;5083785;28;20018;-80
2022/01/14 10:58:01;;;;;;;;;;;-1.00;99.90;;;;;;5099560;27;20299;-79
2022/01/14 11:00:28;;;;;;;;;;;-1.00;99.90;;;;;;5077482;28;19934;-80
2022/01/14 11:02:56;;;;;;;;;;;-1.00;99.90;;;;;;5079768;28;19936;-79
2022/01/14 11:05:23;;;;;;;;;;;-0.90;99.90;;;;;;5081487;28;19924;-79
2022/01/14 11:07:52;;;;;;;;;;;-0.90;99.90;;;;;;5083605;28;19996;-80
2022/01/14 11:10:21;;;;;;;;;;;-0.90;99.90;;;;;;5083750;28;19940;-80
2022/01/14 11:12:48;;;;;;;;;;;-0.90;99.90;;;;;;5077866;28;19931;-80
2022/01/14 11:15:16;;;;;;;;;;;-0.90;99.90;;;;;;5081024;28;19931;-79
2022/01/14 11:17:46;;;;;;;;;;;-0.90;99.90;;;;;;5079912;28;19997;-80
2022/01/14 11:20:13;;;;;;;;;;;-0.90;99.90;;;;;;5104949;27;19924;-79
2022/01/14 11:25:26;;;;;;;;;;;-0.90;99.90;;;;;;5077105;28;19927;-80
2022/01/14 11:27:57;;;;;;;;;;;-0.90;99.90;;;;;;5078413;28;19924;-80
2022/01/14 11:30:32;;;;;;;;;;;-0.80;99.90;;;;;;5076157;28;19935;-79
2022/01/14 11:33:01;;;;;;;;;;;-0.80;99.90;;;;;;5085547;28;19932;-80
2022/01/14 11:35:28;;;;;;;;;;;-0.80;99.90;;;;;;5076721;28;19924;-80
2022/01/14 11:37:55;;;;;;;;;;;-0.80;99.90;;;;;;5079350;28;20050;-80
2022/01/14 11:40:22;;;;;;;;;;;-0.70;99.90;;;;;;5094383;28;19935;-79
2022/01/14 11:42:51;;;;;;;;;;;-0.70;99.90;;;;;;5086152;28;19963;-80
2022/01/14 11:45:19;;;;;;;;;;;-0.70;99.90;;;;;;5091182;28;19924;-79
2022/01/14 11:47:48;;;;;;;;;;;-0.60;99.90;;;;;;5079101;28;19928;-78
2022/01/14 11:50:29;;;;;;;;;;;-0.70;99.90;;;;;;5079736;28;19947;-79
2022/01/14 11:52:58;;;;;;;;;;;-0.60;99.90;;;;;;5076783;28;19954;-79
2022/01/14 11:55:36;;;;;;;;;;;-0.60;99.90;;;;;;5083457;28;20302;-79
2022/01/14 11:58:06;;;;;;;;;;;-0.60;99.90;;;;;;5084239;28;19935;-80
2022/01/14 12:00:37;;;;;;;;;;;-0.60;99.90;;;;;;5089605;28;19928;-80
2022/01/14 12:03:26;;;;;;;;;;;-0.50;99.90;;;;;;5085302;28;19954;-81
2022/01/14 12:05:53;;;;;;;;;;;-0.30;99.90;;;;;;5083191;28;20305;-80
2022/01/14 12:08:21;;;;;;;;;;;-0.30;99.90;;;;;;5081406;28;19932;-80
2022/01/14 12:10:49;;;;;;;;;;;-0.30;99.90;;;;;;5080947;28;19936;-80
2022/01/14 12:13:21;;;;;;;;;;;-0.30;99.90;;;;;;5084034;28;19928;-80
2022/01/14 12:15:56;;;;;;;;;;;-0.30;99.90;;;;;;5080908;28;20409;-81
2022/01/14 12:18:47;;;;;;;;;;;-0.30;99.90;;;;;;5083332;28;20309;-80
2022/01/14 12:21:14;;;;;;;;;;;-0.30;99.90;;;;;;5079944;28;20394;-81
2022/01/14 12:23:41;;;;;;;;;;;-0.30;99.90;;;;;;5090882;28;21830;-80
2022/01/14 12:26:15;;;;;;;;;;;-0.30;99.90;;;;;;5083588;28;19988;-80
2022/01/14 12:28:44;;;;;;;;;;;-0.30;99.90;;;;;;5078071;28;20026;-80
2022/01/14 12:31:11;;;;;;;;;;;-0.20;99.90;;;;;;5077848;28;19932;-79
2022/01/14 12:33:39;;;;;;;;;;;-0.20;99.90;;;;;;5069403;28;19924;-80
2022/01/14 12:36:10;;;;;;;;;;;-0.20;99.90;;;;;;5087954;28;20029;-80
2022/01/14 12:38:39;;;;;;;;;;;-0.20;99.90;;;;;;5082608;28;20298;-80
2022/01/14 12:41:13;;;;;;;;;;;-0.20;99.90;;;;;;5074990;28;19924;-80
2022/01/14 12:43:48;;;;;;;;;;;-0.10;99.90;;;;;;5079039;28;20019;-80
2022/01/14 12:46:34;;;;;;;;;;;0.00;99.90;;;;;;5097364;28;19928;-80
2022/01/14 12:49:06;;;;;;;;;;;-0.10;99.90;;;;;;5085222;28;19931;-80
2022/01/14 12:51:33;;;;;;;;;;;0.00;99.90;;;;;;5082361;28;19924;-80
2022/01/14 12:54:04;;;;;;;;;;;0.00;99.90;;;;;;5087401;28;19939;-79
2022/01/14 12:56:32;;;;;;;;;;;0.10;99.90;;;;;;5085013;28;19980;-80
2022/01/14 12:59:06;;;;;;;;;;;0.20;99.90;;;;;;5078326;28;19924;-80
2022/01/14 13:01:35;;;;;;;;;;;0.20;99.90;;;;;;5077906;28;20098;-80
2022/01/14 13:04:03;;;;;;;;;;;0.30;99.90;;;;;;5085887;28;19928;-81
2022/01/14 13:06:40;;;;;;;;;;;0.30;99.90;;;;;;5103378;28;20394;-80
2022/01/14 13:09:07;;;;;;;;;;;0.30;99.90;;;;;;5086887;28;19935;-80
2022/01/14 13:11:45;;;;;;;;;;;0.30;99.90;;;;;;5092099;22;19930;-77
2022/01/14 13:14:19;;;;;;;;;;;0.40;99.90;;;;;;5079022;28;19943;-77
2022/01/14 13:16:46;;;;;;;;;;;0.40;99.90;;;;;;5074797;28;20386;-77
2022/01/14 13:19:27;;;;;;;;;;;0.50;99.90;;;;;;5073653;28;19931;-77
2022/01/14 13:21:54;;;;;;;;;;;0.50;99.90;;;;;;5057945;28;22101;-77
2022/01/14 13:24:25;;;;;;;;;;;0.60;99.90;;;;;;5074652;28;20299;-77
2022/01/14 13:27:06;;;;;;;;;;;0.60;99.90;;;;;;5077272;28;20533;-78
2022/01/14 13:29:42;;;;;;;;;;;0.60;99.90;;;;;;5073576;28;20338;-78
2022/01/14 13:32:09;;;;;;;;;;;0.60;99.90;;;;;;5079828;28;19928;-77
2022/01/14 13:34:36;;;;;;;;;;;0.70;99.90;;;;;;5078936;28;19990;-78
2022/01/14 13:37:04;;;;;;;;;;;0.70;99.90;;;;;;5058032;28;19932;-77
2022/01/14 13:39:31;;;;;;;;;;;0.70;99.90;;;;;;5077250;28;19928;-77
2022/01/14 13:41:58;;;;;;;;;;;1.00;99.90;;;;;;5077071;28;20291;-77
2022/01/14 13:44:26;;;;;;;;;;;1.30;99.90;;;;;;5060283;28;19924;-77
2022/01/14 13:46:59;;;;;;;;;;;1.30;99.90;;;;;;5059271;28;19932;-77
2022/01/14 13:49:26;;;;;;;;;;;1.20;99.90;;;;;;5080306;28;19931;-77
2022/01/14 13:52:07;;;;;;;;;;;1.20;99.90;;;;;;5054873;28;19934;-77
2022/01/14 13:54:34;;;;;;;;;;;1.10;99.90;;;;;;5074208;28;19947;-77
2022/01/14 13:57:08;;;;;;;;;;;1.10;99.90;;;;;;5067577;28;20543;-77
2022/01/14 13:59:35;;;;;;;;;;;1.10;99.90;;;;;;5060719;28;19929;-77
2022/01/14 14:02:06;;;;;;;;;;;1.10;99.90;;;;;;5062389;28;19924;-78
2022/01/14 14:04:39;;;;;;;;;;;1.10;99.90;;;;;;5062352;28;19931;-77
2022/01/14 14:07:08;;;;;;;;;;;1.20;99.90;;;;;;5069226;28;20420;-77
2022/01/14 14:09:42;;;;;;;;;;;1.20;99.90;;;;;;5083266;28;19924;-77
2022/01/14 14:18:04;;;;;;;;;;;1.20;99.90;;;;;;5085708;28;19943;-77
2022/01/14 14:20:32;;;;;;;;;;;1.30;99.90;;;;;;5059325;28;19933;-77
2022/01/14 14:23:12;;;;;;;;;;;1.30;99.90;;;;;;5066925;28;19932;-77
2022/01/14 14:25:41;;;;;;;;;;;1.40;99.90;;;;;;5063032;28;20025;-77
2022/01/14 14:28:09;;;;;;;;;;;1.40;99.90;;;;;;5068904;28;19953;-77
2022/01/14 14:30:37;;;;;;;;;;;1.40;99.90;;;;;;5080374;28;19947;-77
2022/01/14 14:33:04;;;;;;;;;;;1.40;99.90;;;;;;5066428;28;19932;-77
2022/01/14 14:35:35;;;;;;;;;;;1.40;99.90;;;;;;5080346;28;19925;-77
2022/01/14 14:38:03;;;;;;;;;;;1.40;99.90;;;;;;5081700;28;20019;-77
2022/01/14 14:40:32;;;;;;;;;;;1.50;99.90;;;;;;5073219;28;19930;-77
2022/01/14 14:43:00;;;;;;;;;;;1.50;99.90;;;;;;5074407;28;19928;-76
2022/01/14 14:45:27;;;;;;;;;;;1.80;99.90;;;;;;5082772;28;19959;-77